createdAt,value
2022-11-06T00:00:49.981Z,8.02
2022-11-06T00:03:18.569Z,8.00
2022-11-06T00:06:05.429Z,8.00
2022-11-06T00:08:36.742Z,8.00
2022-11-06T00:11:13.953Z,8.01
2022-11-06T00:13:43.053Z,8.03
2022-11-06T00:16:12.882Z,8.05
2022-11-06T00:18:42.043Z,8.08
2022-11-06T00:21:20.827Z,8.12
2022-11-06T00:23:49.916Z,8.16
2022-11-06T00:26:21.014Z,8.19
2022-11-06T00:28:50.536Z,8.21
2022-11-06T00:31:21.868Z,8.22
2022-11-06T00:33:51.248Z,8.21
2022-11-06T00:36:21.406Z,8.19
2022-11-06T00:38:54.220Z,8.17
2022-11-06T00:41:23.830Z,8.14
2022-11-06T00:44:02.696Z,8.11
2022-11-06T00:46:31.156Z,8.02
2022-11-06T00:48:59.699Z,7.94
2022-11-06T00:51:31.099Z,7.89
2022-11-06T00:54:02.656Z,7.84
2022-11-06T00:56:32.639Z,7.78
2022-11-06T00:59:02.650Z,7.71
2022-11-06T01:01:37.581Z,7.66
2022-11-06T01:04:11.063Z,7.59
2022-11-06T01:06:42.707Z,7.54
2022-11-06T01:09:17.070Z,7.53
2022-11-06T01:14:40.109Z,7.56
2022-11-06T01:17:08.723Z,7.58
2022-11-06T01:19:37.492Z,7.59
2022-11-06T01:22:05.790Z,7.58
2022-11-06T01:24:35.324Z,7.57
2022-11-06T01:29:52.075Z,7.54
2022-11-06T01:32:21.143Z,7.49
2022-11-06T01:34:50.919Z,7.44
2022-11-06T01:37:19.642Z,7.40
2022-11-06T01:39:50.974Z,7.34
2022-11-06T01:42:21.915Z,7.29
2022-11-06T01:45:19.045Z,7.23
2022-11-06T01:47:47.565Z,7.15
2022-11-06T01:50:17.659Z,7.07
2022-11-06T01:52:50.108Z,7.01
2022-11-06T01:55:24.352Z,6.96
2022-11-06T01:57:54.231Z,6.95
2022-11-06T02:00:22.350Z,6.94
2022-11-06T02:02:51.372Z,6.92
2022-11-06T02:05:19.870Z,6.91
2022-11-06T02:07:48.557Z,6.91
2022-11-06T02:10:16.942Z,6.92
2022-11-06T02:12:45.366Z,6.95
2022-11-06T02:15:32.689Z,6.96
2022-11-06T02:18:48.780Z,6.98
2022-11-06T02:21:48.806Z,6.99
2022-11-06T02:24:30.958Z,7.02
2022-11-06T02:27:10.731Z,7.00
2022-11-06T02:29:47.940Z,6.97
2022-11-06T02:32:22.770Z,6.97
2022-11-06T02:34:53.971Z,6.94
2022-11-06T02:37:30.339Z,6.95
2022-11-06T02:40:02.072Z,6.97
2022-11-06T02:42:32.118Z,6.97
2022-11-06T02:45:02.571Z,6.96
2022-11-06T02:47:34.169Z,6.92
2022-11-06T02:50:16.469Z,6.87
2022-11-06T02:52:57.489Z,6.84
2022-11-06T02:55:34.441Z,6.80
2022-11-06T02:58:09.731Z,6.73
2022-11-06T03:00:40.988Z,6.67
2022-11-06T03:03:26.685Z,6.61
2022-11-06T03:06:18.363Z,6.57
2022-11-06T03:08:58.199Z,6.54
2022-11-06T03:11:36.018Z,6.52
2022-11-06T03:14:28.867Z,6.52
2022-11-06T03:17:01.536Z,6.53
2022-11-06T03:19:29.606Z,6.53
2022-11-06T03:22:03.763Z,6.53
2022-11-06T03:24:41.308Z,6.51
2022-11-06T03:27:17.420Z,6.50
2022-11-06T03:29:54.902Z,6.45
2022-11-06T03:32:35.935Z,6.43
2022-11-06T03:35:15.483Z,6.40
2022-11-06T03:37:52.022Z,6.40
2022-11-06T03:40:23.770Z,6.43
2022-11-06T03:42:56.505Z,6.44
2022-11-06T03:45:27.794Z,6.44
2022-11-06T03:48:02.760Z,6.42
2022-11-06T03:50:41.195Z,6.38
2022-11-06T03:53:15.709Z,6.33
2022-11-06T03:56:05.641Z,6.31
2022-11-06T03:58:38.815Z,6.29
2022-11-06T04:01:11.167Z,6.26
2022-11-06T04:03:45.678Z,6.23
2022-11-06T04:06:23.922Z,6.18
2022-11-06T04:09:15.543Z,6.12
2022-11-06T04:12:03.981Z,6.08
2022-11-06T04:14:34.638Z,6.06
2022-11-06T04:17:07.932Z,6.05
2022-11-06T04:19:36.300Z,6.05
2022-11-06T04:22:59.134Z,6.05
2022-11-06T04:25:58.694Z,6.06
2022-11-06T04:29:03.168Z,6.08
2022-11-06T04:31:41.106Z,6.10
2022-11-06T04:34:21.473Z,6.12
2022-11-06T04:37:02.151Z,6.11
2022-11-06T04:39:44.860Z,6.10
2022-11-06T04:42:41.093Z,6.10
2022-11-06T04:45:27.067Z,6.11
2022-11-06T04:47:56.484Z,6.09
2022-11-06T04:50:28.723Z,6.05
2022-11-06T04:52:58.415Z,6.01
2022-11-06T04:55:30.592Z,5.96
2022-11-06T04:57:59.672Z,5.90
2022-11-06T05:00:29.192Z,5.83
2022-11-06T05:02:59.011Z,5.77
2022-11-06T05:05:27.753Z,5.74
2022-11-06T05:07:56.956Z,5.72
2022-11-06T05:10:25.152Z,5.70
2022-11-06T05:12:53.347Z,5.68
2022-11-06T05:15:22.478Z,5.67
2022-11-06T05:17:51.692Z,5.66
2022-11-06T05:20:20.321Z,5.66
2022-11-06T05:23:01.063Z,5.67
2022-11-06T05:25:35.342Z,5.70
2022-11-06T05:28:07.243Z,5.70
2022-11-06T05:30:37.452Z,5.71
2022-11-06T05:33:06.059Z,5.73
2022-11-06T05:35:34.718Z,5.75
2022-11-06T05:38:04.177Z,5.75
2022-11-06T05:40:33.308Z,5.74
2022-11-06T05:43:01.992Z,5.74
2022-11-06T05:45:30.479Z,5.74
2022-11-06T05:47:58.699Z,5.74
2022-11-06T05:50:27.290Z,5.74
2022-11-06T05:52:56.136Z,5.75
2022-11-06T05:55:24.921Z,5.78
2022-11-06T05:57:53.256Z,5.84
2022-11-06T06:00:21.987Z,5.90
2022-11-06T06:02:50.845Z,5.97
2022-11-06T06:05:19.244Z,6.03
2022-11-06T06:07:48.039Z,6.05
2022-11-06T06:10:16.774Z,6.09
2022-11-06T06:12:45.011Z,6.18
2022-11-06T06:15:15.388Z,6.28
2022-11-06T06:17:43.684Z,6.39
2022-11-06T06:20:12.357Z,6.52
2022-11-06T06:22:40.995Z,6.60
2022-11-06T06:25:19.534Z,6.66
2022-11-06T06:27:51.748Z,6.70
2022-11-06T06:30:21.943Z,6.73
2022-11-06T06:32:51.178Z,6.77
2022-11-06T06:35:19.536Z,6.80
2022-11-06T06:37:54.077Z,6.83
2022-11-06T06:40:23.483Z,6.85
2022-11-06T06:42:51.753Z,6.87
2022-11-06T06:45:20.023Z,6.93
2022-11-06T06:47:48.120Z,6.97
2022-11-06T06:50:16.371Z,7.00
2022-11-06T06:52:44.503Z,7.08
2022-11-06T06:55:13.063Z,7.20
2022-11-06T06:57:41.243Z,7.34
2022-11-06T07:00:10.202Z,7.52
2022-11-06T07:02:38.440Z,7.68
2022-11-06T07:05:06.803Z,7.82
2022-11-06T07:07:34.887Z,7.91
2022-11-06T07:10:04.648Z,7.96
2022-11-06T07:12:32.946Z,8.05
2022-11-06T07:15:01.472Z,8.18
2022-11-06T07:17:29.618Z,8.29
2022-11-06T07:19:58.023Z,8.36
2022-11-06T07:22:36.728Z,8.37
2022-11-06T07:25:06.585Z,8.40
2022-11-06T07:27:35.037Z,8.43
2022-11-06T07:30:04.413Z,8.42
2022-11-06T07:32:33.210Z,8.45
2022-11-06T07:35:01.245Z,8.51
2022-11-06T07:37:29.796Z,8.59
2022-11-06T07:39:57.791Z,8.67
2022-11-06T07:42:25.621Z,8.75
2022-11-06T07:44:59.100Z,8.84
2022-11-06T07:47:28.015Z,8.96
2022-11-06T07:49:56.330Z,9.08
2022-11-06T07:52:24.613Z,9.22
2022-11-06T07:54:52.622Z,9.35
2022-11-06T07:57:20.963Z,9.46
2022-11-06T07:59:49.876Z,9.52
2022-11-06T08:02:18.615Z,9.61
2022-11-06T08:04:46.981Z,9.72
2022-11-06T08:07:15.512Z,9.85
2022-11-06T08:09:43.845Z,10.01
2022-11-06T08:12:14.707Z,10.17
2022-11-06T08:14:42.975Z,10.30
2022-11-06T08:17:10.961Z,10.40
2022-11-06T08:19:39.566Z,10.49
2022-11-06T08:22:09.199Z,10.59
2022-11-06T08:24:37.262Z,10.73
2022-11-06T08:27:05.395Z,10.90
2022-11-06T08:29:38.269Z,11.08
2022-11-06T08:32:09.108Z,11.26
2022-11-06T08:34:37.305Z,11.36
2022-11-06T08:37:05.604Z,11.45
2022-11-06T08:39:33.612Z,11.56
2022-11-06T08:42:02.083Z,11.66
2022-11-06T08:44:30.312Z,11.77
2022-11-06T08:46:58.483Z,11.88
2022-11-06T08:49:27.241Z,11.95
2022-11-06T08:51:55.614Z,12.00
2022-11-06T08:54:23.712Z,12.00
2022-11-06T08:56:51.706Z,11.94
2022-11-06T08:59:19.772Z,11.92
2022-11-06T09:01:48.026Z,11.91
2022-11-06T09:04:16.566Z,11.92
2022-11-06T09:06:45.375Z,11.97
2022-11-06T09:09:15.231Z,12.07
2022-11-06T09:11:43.360Z,12.16
2022-11-06T09:14:11.501Z,12.24
2022-11-06T09:16:39.757Z,12.36
2022-11-06T09:19:07.915Z,12.46
2022-11-06T09:21:36.351Z,12.54
2022-11-06T09:24:05.380Z,12.60
2022-11-06T09:26:33.514Z,12.66
2022-11-06T09:29:01.878Z,12.74
2022-11-06T09:31:30.260Z,12.81
2022-11-06T09:33:58.583Z,12.89
2022-11-06T09:36:27.034Z,12.99
2022-11-06T09:38:55.604Z,13.13
2022-11-06T09:41:28.992Z,13.28
2022-11-06T09:44:29.395Z,13.39
2022-11-06T09:47:00.377Z,13.49
2022-11-06T09:49:46.228Z,13.58
2022-11-06T09:52:26.315Z,13.71
2022-11-06T09:55:26.688Z,13.82
2022-11-06T09:57:57.150Z,13.95
2022-11-06T10:00:26.009Z,14.06
2022-11-06T10:03:07.191Z,14.16
2022-11-06T10:05:38.366Z,14.27
2022-11-06T10:08:19.020Z,14.40
2022-11-06T10:11:00.793Z,14.53
2022-11-06T10:13:29.377Z,14.66
2022-11-06T10:16:06.515Z,14.76
2022-11-06T10:18:38.518Z,14.78
2022-11-06T10:21:19.801Z,14.79
2022-11-06T10:23:59.457Z,14.82
2022-11-06T10:26:45.136Z,14.87
2022-11-06T10:29:31.931Z,14.92
2022-11-06T10:32:03.180Z,14.97
2022-11-06T10:34:37.810Z,15.05
2022-11-06T10:37:26.751Z,15.12
2022-11-06T10:39:58.392Z,15.21
2022-11-06T10:42:38.264Z,15.27
2022-11-06T10:45:14.881Z,15.33
2022-11-06T10:48:06.048Z,15.42
2022-11-06T10:50:57.859Z,15.52
2022-11-06T10:53:57.121Z,15.61
2022-11-06T10:56:42.326Z,15.68
2022-11-06T10:59:10.775Z,15.78
2022-11-06T11:01:39.359Z,15.83
2022-11-06T11:04:07.768Z,15.81
2022-11-06T11:06:40.315Z,15.84
2022-11-06T11:09:29.195Z,15.91
2022-11-06T11:11:59.677Z,15.97
2022-11-06T11:14:30.497Z,15.99
2022-11-06T11:17:08.158Z,16.00
2022-11-06T11:19:38.384Z,16.03
2022-11-06T11:22:20.112Z,16.03
2022-11-06T11:25:03.014Z,16.04
2022-11-06T11:27:44.520Z,16.06
2022-11-06T11:30:26.862Z,16.10
2022-11-06T11:32:56.448Z,16.14
2022-11-06T11:35:29.552Z,16.14
2022-11-06T11:38:13.587Z,16.13
2022-11-06T11:40:42.043Z,16.12
2022-11-06T11:43:20.193Z,16.14
2022-11-06T11:46:04.472Z,16.16
2022-11-06T11:48:58.010Z,16.20
2022-11-06T11:51:26.119Z,16.25
2022-11-06T11:54:14.788Z,16.25
2022-11-06T11:57:05.255Z,16.25
2022-11-06T11:59:57.157Z,16.26
2022-11-06T12:02:29.752Z,16.27
2022-11-06T12:05:02.678Z,16.28
2022-11-06T12:07:44.897Z,16.29
2022-11-06T12:10:27.352Z,16.29
2022-11-06T12:12:58.003Z,16.27
2022-11-06T12:15:48.665Z,16.29
2022-11-06T12:18:27.460Z,16.27
2022-11-06T12:21:14.778Z,16.23
2022-11-06T12:23:56.918Z,16.23
2022-11-06T12:26:52.227Z,16.24
2022-11-06T12:29:27.769Z,16.27
2022-11-06T12:32:10.150Z,16.26
2022-11-06T12:34:46.045Z,16.23
2022-11-06T12:37:42.461Z,16.17
2022-11-06T12:40:25.094Z,16.13
2022-11-06T12:43:16.278Z,16.08
2022-11-06T12:46:19.033Z,16.04
2022-11-06T12:48:53.189Z,16.00
2022-11-06T12:51:47.765Z,15.95
2022-11-06T12:54:35.690Z,15.93
2022-11-06T12:57:42.114Z,15.89
2022-11-06T13:00:13.872Z,15.85
2022-11-06T13:02:53.459Z,15.83
2022-11-06T13:05:46.204Z,15.83
2022-11-06T13:08:32.693Z,15.82
2022-11-06T13:11:27.755Z,15.82
2022-11-06T13:14:32.391Z,15.81
2022-11-06T13:17:22.473Z,15.80
2022-11-06T13:20:11.408Z,15.80
2022-11-06T13:22:59.084Z,15.79
2022-11-06T13:25:39.819Z,15.77
2022-11-06T13:28:31.239Z,15.75
2022-11-06T13:31:03.837Z,15.70
2022-11-06T13:33:47.163Z,15.66
2022-11-06T13:36:17.157Z,15.61
2022-11-06T13:38:55.375Z,15.56
2022-11-06T13:41:32.079Z,15.49
2022-11-06T13:44:05.842Z,15.42
2022-11-06T13:46:48.384Z,15.35
2022-11-06T13:49:22.815Z,15.29
2022-11-06T13:52:09.825Z,15.23
2022-11-06T13:55:00.853Z,15.17
2022-11-06T13:58:04.752Z,15.11
2022-11-06T14:01:11.218Z,15.04
2022-11-06T14:04:30.588Z,14.97
2022-11-06T14:07:01.837Z,14.89
2022-11-06T14:09:34.234Z,14.82
2022-11-06T14:12:12.523Z,14.75
2022-11-06T14:14:43.604Z,14.66
2022-11-06T14:17:17.880Z,14.58
2022-11-06T14:19:50.211Z,14.50
2022-11-06T14:22:36.439Z,14.42
2022-11-06T14:25:29.715Z,14.33
2022-11-06T14:27:57.946Z,14.23
2022-11-06T14:31:05.597Z,14.16
2022-11-06T14:33:43.299Z,14.09
2022-11-06T14:36:26.115Z,14.03
2022-11-06T14:38:54.730Z,13.99
2022-11-06T14:41:34.976Z,13.97
2022-11-06T14:44:22.319Z,13.93
2022-11-06T14:47:03.035Z,13.88
2022-11-06T14:49:34.345Z,13.84
2022-11-06T14:52:09.696Z,13.82
2022-11-06T14:54:40.984Z,13.80
2022-11-06T14:57:16.255Z,13.75
2022-11-06T14:59:45.413Z,13.70
2022-11-06T15:02:25.337Z,13.66
2022-11-06T15:05:00.806Z,13.59
2022-11-06T15:08:04.859Z,13.51
2022-11-06T15:10:43.000Z,13.39
2022-11-06T15:13:18.044Z,13.30
2022-11-06T15:15:50.794Z,13.22
2022-11-06T15:18:25.375Z,13.14
2022-11-06T15:21:08.184Z,13.04
2022-11-06T15:23:53.963Z,12.92
2022-11-06T15:26:25.694Z,12.78
2022-11-06T15:29:17.051Z,12.64
2022-11-06T15:31:49.524Z,12.51
2022-11-06T15:34:36.797Z,12.43
2022-11-06T15:37:16.587Z,12.36
2022-11-06T15:40:00.654Z,12.32
2022-11-06T15:42:34.326Z,12.27
2022-11-06T15:45:15.756Z,12.23
2022-11-06T15:48:05.863Z,12.20
2022-11-06T15:50:36.399Z,12.16
2022-11-06T15:53:14.854Z,12.13
2022-11-06T15:55:48.533Z,12.08
2022-11-06T15:58:17.792Z,12.03
2022-11-06T16:00:46.425Z,11.98
2022-11-06T16:03:21.237Z,11.94
2022-11-06T16:05:50.513Z,11.87
2022-11-06T16:08:22.499Z,11.81
2022-11-06T16:10:52.166Z,11.73
2022-11-06T16:13:25.245Z,11.65
2022-11-06T16:15:57.565Z,11.59
2022-11-06T16:18:25.957Z,11.54
2022-11-06T16:21:13.793Z,11.50
2022-11-06T16:23:49.052Z,11.47
2022-11-06T16:26:23.579Z,11.47
2022-11-06T16:28:55.118Z,11.45
2022-11-06T16:31:26.752Z,11.41
2022-11-06T16:33:58.096Z,11.37
2022-11-06T16:36:29.027Z,11.36
2022-11-06T16:39:35.314Z,11.36
2022-11-06T16:42:22.998Z,11.36
2022-11-06T16:45:01.095Z,11.36
2022-11-06T16:47:31.835Z,11.35
2022-11-06T16:50:02.303Z,11.34
2022-11-06T16:52:33.352Z,11.31
2022-11-06T16:55:10.255Z,11.25
2022-11-06T16:57:46.635Z,11.16
2022-11-06T17:00:20.930Z,11.08
2022-11-06T17:02:49.132Z,10.99
2022-11-06T17:05:26.437Z,10.89
2022-11-06T17:08:18.718Z,10.79
2022-11-06T17:10:48.271Z,10.70
2022-11-06T17:13:25.508Z,10.64
2022-11-06T17:15:59.528Z,10.57
2022-11-06T17:18:32.974Z,10.51
2022-11-06T17:21:04.680Z,10.48
2022-11-06T17:23:33.892Z,10.47
2022-11-06T17:26:16.155Z,10.46
2022-11-06T17:28:44.531Z,10.44
2022-11-06T17:31:16.667Z,10.45
2022-11-06T17:33:45.316Z,10.46
2022-11-06T17:36:28.149Z,10.46
2022-11-06T17:38:58.141Z,10.44
2022-11-06T17:41:32.806Z,10.41
2022-11-06T17:44:04.065Z,10.37
2022-11-06T17:46:38.105Z,10.31
2022-11-06T17:49:06.543Z,10.25
2022-11-06T17:51:53.777Z,10.17
2022-11-06T17:54:27.768Z,10.09
2022-11-06T17:56:58.077Z,10.03
2022-11-06T17:59:26.509Z,9.97
2022-11-06T18:01:55.688Z,9.90
2022-11-06T18:04:26.705Z,9.85
2022-11-06T18:06:55.371Z,9.81
2022-11-06T18:09:24.437Z,9.79
2022-11-06T18:11:54.715Z,9.75
2022-11-06T18:14:25.221Z,9.71
2022-11-06T18:16:54.048Z,9.66
2022-11-06T18:19:24.251Z,9.62
2022-11-06T18:21:53.513Z,9.56
2022-11-06T18:24:22.084Z,9.49
2022-11-06T18:26:50.947Z,9.43
2022-11-06T18:29:19.708Z,9.36
2022-11-06T18:31:47.870Z,9.29
2022-11-06T18:34:20.624Z,9.23
2022-11-06T18:36:50.989Z,9.19
2022-11-06T18:39:19.808Z,9.14
2022-11-06T18:41:48.336Z,9.11
2022-11-06T18:44:21.212Z,9.09
2022-11-06T18:46:49.783Z,9.07
2022-11-06T18:49:18.685Z,9.06
2022-11-06T18:51:47.180Z,9.05
2022-11-06T18:54:15.379Z,9.03
2022-11-06T18:56:43.681Z,9.02
2022-11-06T18:59:19.070Z,9.01
2022-11-06T19:01:47.586Z,8.98
2022-11-06T19:04:16.033Z,8.95
2022-11-06T19:06:44.363Z,8.90
2022-11-06T19:09:12.455Z,8.86
2022-11-06T19:11:40.949Z,8.81
2022-11-06T19:14:09.423Z,8.77
2022-11-06T19:16:37.945Z,8.74
2022-11-06T19:19:07.232Z,8.70
2022-11-06T19:21:35.880Z,8.67
2022-11-06T19:24:06.019Z,8.64
2022-11-06T19:26:36.103Z,8.62
2022-11-06T19:29:08.147Z,8.59
2022-11-06T19:31:37.869Z,8.58
2022-11-06T19:34:07.791Z,8.56
2022-11-06T19:36:36.711Z,8.54
2022-11-06T19:39:05.409Z,8.50
2022-11-06T19:41:33.916Z,8.44
2022-11-06T19:44:02.332Z,8.39
2022-11-06T19:46:35.577Z,8.33
2022-11-06T19:49:06.600Z,8.27
2022-11-06T19:51:41.272Z,8.19
2022-11-06T19:54:11.267Z,8.12
2022-11-06T19:57:28.467Z,8.05
2022-11-06T19:59:27.954Z,7.99
2022-11-06T20:01:56.537Z,7.95
2022-11-06T20:04:24.700Z,7.92
2022-11-06T20:06:52.754Z,7.90
2022-11-06T20:09:20.862Z,7.89
2022-11-06T20:11:49.037Z,7.87
2022-11-06T20:14:21.788Z,7.86
2022-11-06T20:16:54.377Z,7.84
2022-11-06T20:19:23.667Z,7.83
2022-11-06T20:21:52.531Z,7.82
2022-11-06T20:24:21.158Z,7.82
2022-11-06T20:26:49.520Z,7.82
2022-11-06T20:29:17.816Z,7.80
2022-11-06T20:31:45.945Z,7.76
2022-11-06T20:34:13.864Z,7.74
2022-11-06T20:36:41.862Z,7.69
2022-11-06T20:39:09.937Z,7.62
2022-11-06T20:41:38.030Z,7.56
2022-11-06T20:44:06.132Z,7.49
2022-11-06T20:46:34.653Z,7.41
2022-11-06T20:49:03.552Z,7.34
2022-11-06T20:51:42.963Z,7.27
2022-11-06T20:54:17.028Z,7.20
2022-11-06T20:56:45.306Z,7.15
2022-11-06T20:59:14.740Z,7.12
2022-11-06T21:01:43.515Z,7.10
2022-11-06T21:04:12.428Z,7.09
2022-11-06T21:06:40.787Z,7.08
2022-11-06T21:09:09.439Z,7.07
2022-11-06T21:11:38.064Z,7.07
2022-11-06T21:14:06.410Z,7.08
2022-11-06T21:16:36.474Z,7.09
2022-11-06T21:19:06.255Z,7.11
2022-11-06T21:21:37.345Z,7.11
2022-11-06T21:24:06.010Z,7.11
2022-11-06T21:26:37.650Z,7.09
2022-11-06T21:29:11.068Z,7.06
2022-11-06T21:31:45.647Z,7.01
2022-11-06T21:34:18.824Z,6.97
2022-11-06T21:36:47.683Z,6.92
2022-11-06T21:39:20.239Z,6.87
2022-11-06T21:41:48.734Z,6.80
2022-11-06T21:44:18.282Z,6.73
2022-11-06T21:46:47.116Z,6.67
2022-11-06T21:49:15.828Z,6.62
2022-11-06T21:51:43.958Z,6.58
2022-11-06T21:54:31.406Z,6.56
2022-11-06T21:56:59.725Z,6.53
2022-11-06T21:59:29.298Z,6.53
2022-11-06T22:01:58.109Z,6.53
2022-11-06T22:04:26.349Z,6.53
2022-11-06T22:06:54.639Z,6.53
2022-11-06T22:09:25.688Z,6.52
2022-11-06T22:11:54.510Z,6.52
2022-11-06T22:14:22.590Z,6.54
2022-11-06T22:16:50.799Z,6.55
2022-11-06T22:19:18.884Z,6.55
2022-11-06T22:21:46.996Z,6.56
2022-11-06T22:24:16.114Z,6.56
2022-11-06T22:26:44.347Z,6.55
2022-11-06T22:29:14.393Z,6.52
2022-11-06T22:31:42.564Z,6.46
2022-11-06T22:34:12.255Z,6.41
2022-11-06T22:36:41.439Z,6.37
2022-11-06T22:39:11.394Z,6.33
2022-11-06T22:41:41.447Z,6.29
2022-11-06T22:44:10.117Z,6.25
2022-11-06T22:46:38.888Z,6.21
2022-11-06T22:49:07.273Z,6.20
2022-11-06T22:51:35.667Z,6.20
2022-11-06T22:54:04.193Z,6.21
2022-11-06T22:56:33.178Z,6.24
2022-11-06T22:59:04.772Z,6.26
2022-11-06T23:01:37.452Z,6.28
2022-11-06T23:04:16.156Z,6.31
2022-11-06T23:06:45.576Z,6.36
2022-11-06T23:09:14.443Z,6.37
2022-11-06T23:11:46.244Z,6.40
2022-11-06T23:14:14.241Z,6.43
2022-11-06T23:16:57.383Z,6.42
2022-11-06T23:19:26.901Z,6.45
2022-11-06T23:22:13.869Z,6.48
2022-11-06T23:24:42.685Z,6.49
2022-11-06T23:27:12.067Z,6.44
2022-11-06T23:29:40.652Z,6.40
2022-11-06T23:32:09.068Z,6.37
2022-11-06T23:34:37.393Z,6.33
2022-11-06T23:37:05.741Z,6.30
2022-11-06T23:39:34.009Z,6.24
2022-11-06T23:42:02.320Z,6.18
2022-11-06T23:44:49.546Z,6.12
2022-11-06T23:47:18.033Z,6.07
2022-11-06T23:49:46.268Z,6.04
2022-11-06T23:52:14.523Z,6.02
2022-11-06T23:54:42.839Z,6.01
2022-11-06T23:57:12.345Z,6.00
2022-11-06T23:59:40.675Z,6.00
